createdAt,value
2022-08-28T00:00:40.331Z,62.90
2022-08-28T00:03:10.454Z,62.96
2022-08-28T00:05:42.177Z,62.73
2022-08-28T00:08:13.945Z,62.62
2022-08-28T00:10:42.737Z,62.42
2022-08-28T00:13:18.566Z,62.85
2022-08-28T00:15:50.471Z,63.09
2022-08-28T00:18:19.034Z,62.74
2022-08-28T00:20:48.285Z,62.60
2022-08-28T00:23:16.419Z,62.71
2022-08-28T00:25:44.221Z,62.64
2022-08-28T00:28:23.395Z,62.93
2022-08-28T00:30:55.996Z,62.80
2022-08-28T00:33:27.497Z,62.70
2022-08-28T00:35:56.594Z,63.08
2022-08-28T00:38:27.262Z,62.89
2022-08-28T00:41:03.665Z,62.67
2022-08-28T00:43:47.753Z,62.95
2022-08-28T00:46:23.333Z,62.63
2022-08-28T00:48:51.233Z,62.73
2022-08-28T00:51:39.356Z,62.76
2022-08-28T00:54:08.375Z,63.06
2022-08-28T00:56:39.365Z,63.08
2022-08-28T00:59:15.604Z,62.89
2022-08-28T01:01:46.034Z,62.96
2022-08-28T01:04:20.160Z,63.03
2022-08-28T01:06:53.984Z,63.08
2022-08-28T01:09:25.851Z,62.82
2022-08-28T01:11:59.367Z,63.03
2022-08-28T01:14:28.710Z,62.42
2022-08-28T01:16:57.970Z,62.53
2022-08-28T01:19:43.855Z,62.99
2022-08-28T01:22:38.816Z,62.97
2022-08-28T01:25:14.626Z,63.03
2022-08-28T01:27:43.079Z,63.27
2022-08-28T01:30:19.882Z,63.29
2022-08-28T01:32:52.268Z,63.13
2022-08-28T01:35:30.076Z,62.97
2022-08-28T01:37:58.460Z,62.97
2022-08-28T01:40:36.305Z,63.09
2022-08-28T01:43:20.439Z,63.39
2022-08-28T01:45:53.226Z,63.39
2022-08-28T01:48:24.579Z,63.32
2022-08-28T01:50:52.823Z,62.88
2022-08-28T01:53:24.991Z,63.37
2022-08-28T01:55:55.167Z,63.35
2022-08-28T01:58:25.076Z,63.26
2022-08-28T02:00:55.831Z,63.40
2022-08-28T02:03:24.746Z,63.73
2022-08-28T02:05:52.851Z,63.26
2022-08-28T02:08:21.279Z,63.65
2022-08-28T02:10:49.379Z,63.33
2022-08-28T02:13:17.208Z,63.19
2022-08-28T02:15:46.052Z,63.05
2022-08-28T02:18:14.645Z,63.49
2022-08-28T02:20:43.000Z,63.18
2022-08-28T02:23:11.315Z,63.55
2022-08-28T02:25:39.521Z,63.35
2022-08-28T02:28:07.738Z,63.68
2022-08-28T02:30:36.855Z,63.42
2022-08-28T02:33:04.801Z,63.68
2022-08-28T02:35:32.710Z,63.70
2022-08-28T02:38:01.617Z,63.59
2022-08-28T02:40:30.138Z,63.67
2022-08-28T02:42:58.263Z,63.44
2022-08-28T02:45:26.250Z,63.45
2022-08-28T02:47:56.822Z,63.83
2022-08-28T02:50:24.962Z,63.48
2022-08-28T02:52:53.708Z,63.76
2022-08-28T02:55:22.733Z,63.88
2022-08-28T02:57:51.685Z,63.67
2022-08-28T03:00:24.358Z,63.50
2022-08-28T03:02:52.834Z,63.67
2022-08-28T03:05:24.835Z,63.79
2022-08-28T03:07:53.579Z,63.37
2022-08-28T03:10:22.406Z,63.41
2022-08-28T03:12:50.434Z,63.18
2022-08-28T03:15:18.928Z,63.23
2022-08-28T03:17:47.975Z,63.48
2022-08-28T03:20:16.696Z,63.55
2022-08-28T03:23:03.307Z,63.46
2022-08-28T03:25:31.135Z,63.37
2022-08-28T03:27:59.125Z,63.63
2022-08-28T03:30:27.381Z,63.11
2022-08-28T03:32:55.241Z,63.53
2022-08-28T03:35:24.145Z,63.22
2022-08-28T03:37:51.974Z,63.49
2022-08-28T03:40:20.538Z,63.26
2022-08-28T03:42:53.380Z,63.50
2022-08-28T03:45:22.039Z,63.06
2022-08-28T03:47:50.873Z,63.32
2022-08-28T03:50:19.817Z,63.32
2022-08-28T03:52:47.761Z,63.11
2022-08-28T03:55:15.869Z,63.13
2022-08-28T03:57:43.650Z,63.34
2022-08-28T04:00:13.658Z,63.53
2022-08-28T04:02:42.872Z,63.61
2022-08-28T04:05:11.936Z,63.50
2022-08-28T04:07:40.161Z,63.52
2022-08-28T04:10:08.788Z,63.28
2022-08-28T04:12:37.151Z,63.49
2022-08-28T04:15:07.088Z,63.48
2022-08-28T04:17:38.621Z,63.35
2022-08-28T04:20:08.952Z,63.23
2022-08-28T04:22:37.381Z,63.40
2022-08-28T04:25:06.752Z,63.17
2022-08-28T04:27:35.087Z,62.80
2022-08-28T04:30:04.140Z,62.97
2022-08-28T04:32:37.397Z,62.92
2022-08-28T04:35:08.839Z,63.20
2022-08-28T04:37:38.604Z,63.45
2022-08-28T04:40:11.612Z,63.52
2022-08-28T04:42:40.162Z,62.95
2022-08-28T04:45:08.689Z,63.23
2022-08-28T04:47:38.010Z,63.20
2022-08-28T04:50:07.804Z,63.36
2022-08-28T04:52:35.863Z,62.96
2022-08-28T04:55:05.353Z,62.96
2022-08-28T04:57:36.209Z,62.93
2022-08-28T05:00:07.380Z,63.24
2022-08-28T05:02:35.238Z,63.29
2022-08-28T05:05:04.351Z,63.28
2022-08-28T05:07:33.064Z,63.16
2022-08-28T05:10:00.842Z,62.91
2022-08-28T05:12:28.633Z,63.01
2022-08-28T05:14:56.429Z,62.96
2022-08-28T05:17:24.197Z,63.02
2022-08-28T05:19:54.383Z,62.94
2022-08-28T05:22:22.155Z,62.78
2022-08-28T05:24:49.992Z,62.98
2022-08-28T05:27:17.761Z,62.72
2022-08-28T05:29:45.571Z,63.03
2022-08-28T05:32:13.341Z,62.80
2022-08-28T05:34:41.133Z,62.37
2022-08-28T05:37:09.709Z,62.50
2022-08-28T05:39:37.499Z,62.94
2022-08-28T05:42:05.688Z,62.69
2022-08-28T05:44:33.459Z,62.61
2022-08-28T05:47:01.213Z,62.62
2022-08-28T05:49:29.029Z,62.74
2022-08-28T05:51:56.845Z,62.88
2022-08-28T05:54:24.664Z,62.99
2022-08-28T05:56:52.499Z,62.68
2022-08-28T05:59:20.397Z,62.45
2022-08-28T06:01:49.762Z,62.86
2022-08-28T06:04:27.164Z,62.84
2022-08-28T06:06:55.294Z,62.14
2022-08-28T06:09:29.675Z,62.49
2022-08-28T06:12:02.346Z,62.32
2022-08-28T06:14:31.585Z,61.94
2022-08-28T06:17:01.022Z,61.85
2022-08-28T06:19:31.846Z,62.27
2022-08-28T06:22:07.246Z,62.28
2022-08-28T06:24:36.543Z,62.32
2022-08-28T06:27:04.848Z,62.39
2022-08-28T06:29:32.708Z,62.21
2022-08-28T06:32:04.435Z,62.22
2022-08-28T06:34:32.446Z,61.81
2022-08-28T06:37:00.675Z,62.04
2022-08-28T06:39:28.509Z,61.80
2022-08-28T06:41:56.286Z,62.10
2022-08-28T06:44:24.548Z,61.77
2022-08-28T06:46:54.126Z,61.81
2022-08-28T06:49:22.481Z,61.54
2022-08-28T06:51:50.460Z,61.78
2022-08-28T06:54:22.977Z,61.59
2022-08-28T06:56:52.297Z,61.66
2022-08-28T06:59:20.262Z,61.58
2022-08-28T07:01:48.279Z,61.43
2022-08-28T07:04:16.314Z,61.27
2022-08-28T07:06:47.029Z,61.37
2022-08-28T07:09:15.529Z,61.62
2022-08-28T07:11:48.735Z,61.37
2022-08-28T07:14:17.103Z,61.03
2022-08-28T07:16:45.019Z,61.00
2022-08-28T07:19:13.678Z,60.66
2022-08-28T07:21:44.855Z,60.85
2022-08-28T07:24:15.555Z,60.97
2022-08-28T07:26:46.123Z,60.96
2022-08-28T07:29:15.784Z,60.50
2022-08-28T07:31:49.171Z,60.59
2022-08-28T07:34:20.391Z,60.62
2022-08-28T07:36:48.923Z,60.61
2022-08-28T07:39:16.895Z,60.77
2022-08-28T07:41:46.936Z,60.69
2022-08-28T07:44:34.507Z,60.94
2022-08-28T07:47:05.898Z,61.02
2022-08-28T07:49:35.340Z,60.97
2022-08-28T07:52:05.433Z,60.80
2022-08-28T07:54:36.003Z,60.50
2022-08-28T07:57:05.413Z,60.45
2022-08-28T07:59:36.831Z,60.37
2022-08-28T08:02:06.951Z,60.46
2022-08-28T08:04:35.407Z,60.76
2022-08-28T08:07:05.020Z,60.54
2022-08-28T08:09:38.769Z,60.42
2022-08-28T08:12:10.313Z,60.11
2022-08-28T08:14:40.390Z,60.22
2022-08-28T08:17:09.464Z,59.96
2022-08-28T08:19:37.547Z,59.98
2022-08-28T08:22:05.646Z,59.45
2022-08-28T08:24:33.917Z,59.46
2022-08-28T08:27:03.065Z,59.49
2022-08-28T08:29:36.027Z,58.82
2022-08-28T08:32:09.088Z,58.83
2022-08-28T08:34:41.975Z,58.94
2022-08-28T08:37:12.754Z,59.14
2022-08-28T08:39:43.078Z,58.80
2022-08-28T08:42:30.751Z,58.60
2022-08-28T08:45:04.085Z,58.58
2022-08-28T08:47:47.273Z,58.79
2022-08-28T08:50:24.203Z,58.04
2022-08-28T08:53:35.529Z,57.85
2022-08-28T08:56:06.215Z,57.73
2022-08-28T08:58:45.244Z,57.27
2022-08-28T09:01:39.508Z,57.38
2022-08-28T09:04:59.563Z,57.32
2022-08-28T09:07:59.357Z,57.64
2022-08-28T09:10:44.769Z,57.22
2022-08-28T09:13:28.607Z,56.99
2022-08-28T09:15:56.844Z,56.58
2022-08-28T09:18:32.088Z,56.54
2022-08-28T09:21:00.562Z,56.46
2022-08-28T09:23:30.044Z,56.21
2022-08-28T09:26:01.880Z,55.59
2022-08-28T09:28:35.785Z,55.41
2022-08-28T09:31:12.514Z,55.45
2022-08-28T09:33:44.963Z,55.60
2022-08-28T09:36:33.373Z,55.69
2022-08-28T09:39:18.374Z,55.21
2022-08-28T09:42:17.712Z,54.88
2022-08-28T09:45:09.230Z,55.05
2022-08-28T09:47:51.804Z,54.71
2022-08-28T09:50:44.567Z,55.23
2022-08-28T09:53:12.201Z,54.61
2022-08-28T09:56:11.147Z,54.89
2022-08-28T09:58:47.231Z,54.75
2022-08-28T10:01:39.146Z,54.96
2022-08-28T10:04:24.661Z,54.63
2022-08-28T10:07:03.424Z,54.53
2022-08-28T10:10:00.294Z,54.59
2022-08-28T10:12:30.621Z,54.29
2022-08-28T10:15:33.899Z,54.32
2022-08-28T10:18:07.322Z,53.33
2022-08-28T10:21:04.077Z,53.18
2022-08-28T10:23:51.268Z,53.87
2022-08-28T10:26:46.748Z,53.13
2022-08-28T10:29:53.562Z,53.94
2022-08-28T10:32:54.730Z,53.45
2022-08-28T10:35:35.486Z,52.69
2022-08-28T10:38:17.377Z,52.54
2022-08-28T10:41:06.215Z,52.64
2022-08-28T10:43:48.428Z,52.92
2022-08-28T10:46:45.165Z,53.07
2022-08-28T10:49:40.731Z,52.93
2022-08-28T10:52:36.018Z,52.37
2022-08-28T10:55:07.774Z,51.81
2022-08-28T10:57:52.115Z,51.83
2022-08-28T11:00:24.105Z,52.27
2022-08-28T11:03:33.978Z,52.16
2022-08-28T11:06:20.405Z,51.68
2022-08-28T11:08:55.369Z,50.64
2022-08-28T11:11:46.824Z,50.70
2022-08-28T11:14:47.063Z,50.72
2022-08-28T11:17:22.755Z,50.15
2022-08-28T11:20:02.941Z,50.54
2022-08-28T11:23:01.329Z,50.47
2022-08-28T11:25:42.491Z,50.10
2022-08-28T11:28:25.614Z,50.33
2022-08-28T11:31:05.511Z,50.20
2022-08-28T11:33:49.813Z,50.10
2022-08-28T11:36:20.435Z,48.90
2022-08-28T11:38:57.821Z,49.04
2022-08-28T11:41:32.800Z,49.44
2022-08-28T11:44:09.388Z,48.39
2022-08-28T11:46:43.928Z,49.00
2022-08-28T11:49:29.856Z,49.47
2022-08-28T11:52:34.069Z,49.54
2022-08-28T11:55:31.043Z,48.85
2022-08-28T12:00:46.252Z,47.82
2022-08-28T12:03:44.688Z,47.57
2022-08-28T12:06:13.855Z,47.35
2022-08-28T12:09:12.979Z,47.37
2022-08-28T12:11:43.122Z,46.94
2022-08-28T12:14:41.256Z,46.40
2022-08-28T12:17:31.202Z,46.42
2022-08-28T12:20:24.127Z,46.37
2022-08-28T12:23:00.325Z,46.83
2022-08-28T12:25:37.783Z,46.64
2022-08-28T12:28:33.577Z,46.20
2022-08-28T12:32:13.097Z,45.52
2022-08-28T12:34:58.543Z,45.49
2022-08-28T12:37:54.305Z,45.62
2022-08-28T12:40:38.134Z,45.24
2022-08-28T12:43:10.808Z,44.11
2022-08-28T12:45:59.550Z,44.84
2022-08-28T12:48:35.085Z,44.77
2022-08-28T12:51:08.275Z,44.84
2022-08-28T12:53:46.926Z,44.45
2022-08-28T12:56:24.084Z,43.84
2022-08-28T12:58:53.083Z,43.22
2022-08-28T13:01:33.119Z,42.97
2022-08-28T13:04:25.977Z,41.96
2022-08-28T13:07:03.269Z,41.39
2022-08-28T13:09:31.318Z,41.12
2022-08-28T13:11:59.116Z,42.08
2022-08-28T13:14:46.205Z,41.94
2022-08-28T13:17:36.129Z,42.02
2022-08-28T13:20:08.485Z,41.23
2022-08-28T13:22:42.114Z,41.75
2022-08-28T13:25:33.335Z,40.55
2022-08-28T13:28:17.769Z,40.64
2022-08-28T13:30:58.477Z,41.01
2022-08-28T13:33:27.302Z,40.47
2022-08-28T13:35:55.204Z,39.83
2022-08-28T13:38:25.099Z,39.65
2022-08-28T13:41:02.254Z,39.14
2022-08-28T13:43:46.207Z,38.58
2022-08-28T13:46:14.530Z,38.11
2022-08-28T13:48:42.337Z,38.12
2022-08-28T13:51:15.290Z,38.43
2022-08-28T13:53:50.569Z,38.31
2022-08-28T13:56:21.854Z,38.15
2022-08-28T13:58:57.864Z,37.94
2022-08-28T14:01:46.621Z,38.27
2022-08-28T14:04:14.628Z,38.02
2022-08-28T14:06:45.743Z,37.80
2022-08-28T14:09:17.567Z,36.77
2022-08-28T14:11:47.907Z,36.97
2022-08-28T14:14:16.875Z,36.84
2022-08-28T14:16:45.785Z,36.31
2022-08-28T14:19:13.856Z,35.30
2022-08-28T14:21:42.088Z,35.15
2022-08-28T14:24:10.185Z,34.87
2022-08-28T14:26:38.565Z,35.40
2022-08-28T14:29:10.064Z,35.68
2022-08-28T14:31:41.007Z,34.96
2022-08-28T14:34:14.897Z,35.14
2022-08-28T14:36:43.009Z,34.64
2022-08-28T14:39:13.569Z,34.23
2022-08-28T14:41:46.930Z,34.68
2022-08-28T14:44:15.993Z,33.55
2022-08-28T14:46:46.072Z,33.55
2022-08-28T14:49:16.456Z,33.52
2022-08-28T14:51:46.341Z,33.27
2022-08-28T14:54:17.993Z,33.42
2022-08-28T14:56:47.532Z,32.94
2022-08-28T14:59:23.957Z,32.77
2022-08-28T15:01:55.574Z,32.69
2022-08-28T15:04:25.066Z,32.12
2022-08-28T15:06:59.161Z,32.28
2022-08-28T15:09:27.642Z,32.54
2022-08-28T15:11:55.523Z,32.38
2022-08-28T15:14:23.279Z,32.54
2022-08-28T15:16:51.329Z,32.01
2022-08-28T15:19:19.445Z,32.62
2022-08-28T15:21:51.297Z,32.35
2022-08-28T15:24:26.384Z,32.20
2022-08-28T15:26:54.371Z,32.08
2022-08-28T15:29:22.307Z,33.01
2022-08-28T15:31:51.362Z,31.77
2022-08-28T15:34:23.483Z,32.90
2022-08-28T15:36:55.666Z,32.13
2022-08-28T15:39:54.911Z,32.98
2022-08-28T15:42:23.298Z,32.38
2022-08-28T15:44:51.074Z,32.23
2022-08-28T15:47:18.823Z,31.63
2022-08-28T15:49:53.158Z,31.90
2022-08-28T15:52:20.967Z,31.77
2022-08-28T15:54:49.654Z,31.25
2022-08-28T15:57:18.100Z,31.24
2022-08-28T15:59:48.847Z,31.50
2022-08-28T16:02:24.153Z,31.60
2022-08-28T16:04:53.591Z,31.79
2022-08-28T16:07:23.053Z,32.43
2022-08-28T16:09:51.347Z,31.90
2022-08-28T16:12:19.218Z,32.33
2022-08-28T16:14:47.144Z,31.97
2022-08-28T16:17:14.904Z,32.11
2022-08-28T16:19:43.698Z,32.89
2022-08-28T16:22:15.994Z,33.09
2022-08-28T16:24:45.377Z,33.11
2022-08-28T16:27:15.632Z,33.29
2022-08-28T16:29:45.468Z,33.29
2022-08-28T16:32:13.721Z,33.31
2022-08-28T16:34:44.907Z,33.14
2022-08-28T16:37:14.391Z,33.24
2022-08-28T16:39:52.549Z,33.75
2022-08-28T16:42:20.311Z,33.99
2022-08-28T16:44:48.659Z,34.47
2022-08-28T16:47:16.657Z,34.28
2022-08-28T16:49:44.465Z,34.43
2022-08-28T16:52:12.285Z,34.75
2022-08-28T16:54:48.643Z,35.31
2022-08-28T16:57:20.760Z,35.56
2022-08-28T16:59:53.491Z,35.62
2022-08-28T17:02:26.481Z,36.11
2022-08-28T17:04:55.420Z,36.34
2022-08-28T17:07:23.143Z,36.71
2022-08-28T17:09:50.967Z,37.21
2022-08-28T17:12:18.796Z,37.21
2022-08-28T17:14:46.763Z,37.35
2022-08-28T17:17:14.844Z,37.30
2022-08-28T17:19:42.639Z,38.09
2022-08-28T17:22:29.205Z,38.22
2022-08-28T17:24:58.855Z,38.09
2022-08-28T17:27:26.808Z,38.36
2022-08-28T17:29:54.714Z,38.76
2022-08-28T17:32:22.431Z,38.28
2022-08-28T17:34:50.241Z,38.90
2022-08-28T17:37:20.583Z,38.94
2022-08-28T17:39:48.728Z,38.88
2022-08-28T17:42:16.481Z,38.73
2022-08-28T17:44:44.252Z,38.87
2022-08-28T17:47:12.103Z,39.52
2022-08-28T17:49:40.669Z,39.40
2022-08-28T17:52:08.399Z,39.65
2022-08-28T17:54:36.519Z,39.01
2022-08-28T17:57:04.434Z,39.18
2022-08-28T17:59:32.846Z,39.47
2022-08-28T18:02:01.701Z,39.87
2022-08-28T18:04:29.654Z,40.03
2022-08-28T18:06:57.620Z,39.97
2022-08-28T18:09:25.488Z,40.25
2022-08-28T18:11:53.552Z,40.28
2022-08-28T18:14:21.472Z,40.80
2022-08-28T18:16:49.311Z,40.55
2022-08-28T18:19:17.201Z,41.43
2022-08-28T18:21:45.400Z,41.32
2022-08-28T18:24:13.360Z,41.83
2022-08-28T18:26:42.826Z,41.85
2022-08-28T18:29:11.673Z,42.12
2022-08-28T18:31:40.371Z,42.36
2022-08-28T18:34:09.829Z,42.36
2022-08-28T18:36:39.938Z,42.89
2022-08-28T18:39:08.592Z,42.91
2022-08-28T18:41:43.789Z,42.98
2022-08-28T18:44:15.245Z,43.19
2022-08-28T18:46:44.726Z,43.46
2022-08-28T18:49:13.407Z,43.92
2022-08-28T18:51:43.635Z,43.97
2022-08-28T18:54:14.419Z,44.83
2022-08-28T18:56:46.758Z,44.38
2022-08-28T18:59:17.162Z,44.92
2022-08-28T19:01:45.552Z,44.79
2022-08-28T19:04:13.447Z,45.16
2022-08-28T19:06:42.115Z,45.30
2022-08-28T19:09:20.423Z,45.53
2022-08-28T19:11:48.734Z,45.96
2022-08-28T19:14:16.592Z,46.27
2022-08-28T19:16:45.048Z,46.54
2022-08-28T19:19:12.948Z,46.62
2022-08-28T19:21:41.127Z,46.41
2022-08-28T19:24:08.959Z,46.75
2022-08-28T19:26:38.607Z,46.98
2022-08-28T19:29:07.066Z,47.02
2022-08-28T19:31:37.749Z,46.87
2022-08-28T19:34:07.844Z,46.78
2022-08-28T19:36:36.218Z,46.70
2022-08-28T19:39:06.581Z,47.01
2022-08-28T19:41:36.754Z,47.00
2022-08-28T19:44:05.872Z,47.18
2022-08-28T19:46:36.791Z,47.35
2022-08-28T19:49:07.638Z,47.57
2022-08-28T19:51:38.081Z,47.94
2022-08-28T19:54:11.000Z,47.96
2022-08-28T19:56:39.898Z,47.62
2022-08-28T19:59:08.945Z,47.69
2022-08-28T20:01:41.156Z,47.96
2022-08-28T20:04:13.422Z,47.61
2022-08-28T20:06:41.205Z,47.91
2022-08-28T20:09:12.719Z,47.79
2022-08-28T20:11:44.248Z,48.04
2022-08-28T20:14:12.573Z,47.70
2022-08-28T20:16:43.270Z,47.97
2022-08-28T20:19:12.611Z,47.95
2022-08-28T20:21:44.249Z,47.88
2022-08-28T20:24:17.680Z,48.32
2022-08-28T20:26:46.139Z,48.35
2022-08-28T20:29:15.137Z,48.12
2022-08-28T20:31:47.292Z,48.32
2022-08-28T20:34:19.951Z,48.38
2022-08-28T20:36:48.677Z,48.09
2022-08-28T20:39:16.594Z,48.34
2022-08-28T20:41:46.039Z,48.22
2022-08-28T20:44:17.802Z,48.31
2022-08-28T20:46:51.139Z,48.31
2022-08-28T20:49:22.194Z,48.35
2022-08-28T20:51:53.856Z,48.45
2022-08-28T20:54:27.457Z,48.54
2022-08-28T20:56:58.427Z,48.76
2022-08-28T20:59:34.448Z,48.38
2022-08-28T21:02:12.182Z,48.04
2022-08-28T21:04:42.274Z,48.33
2022-08-28T21:07:12.251Z,48.05
2022-08-28T21:10:05.959Z,48.30
2022-08-28T21:12:28.460Z,48.19
2022-08-28T21:14:56.305Z,48.27
2022-08-28T21:17:29.587Z,48.47
2022-08-28T21:20:03.070Z,48.47
2022-08-28T21:22:33.412Z,48.40
2022-08-28T21:25:06.650Z,48.70
2022-08-28T21:27:35.022Z,48.72
2022-08-28T21:30:05.249Z,48.63
2022-08-28T21:32:34.175Z,48.54
2022-08-28T21:35:05.251Z,48.81
2022-08-28T21:37:33.296Z,48.55
2022-08-28T21:40:01.456Z,48.91
2022-08-28T21:42:29.269Z,48.70
2022-08-28T21:44:57.014Z,48.49
2022-08-28T21:47:25.675Z,48.44
2022-08-28T21:49:56.558Z,49.03
2022-08-28T21:52:30.944Z,48.91
2022-08-28T21:55:10.858Z,48.60
2022-08-28T21:57:39.233Z,49.14
2022-08-28T22:00:17.641Z,48.73
2022-08-28T22:02:46.351Z,48.81
2022-08-28T22:05:15.245Z,48.77
2022-08-28T22:07:45.023Z,49.08
2022-08-28T22:10:12.829Z,48.68
2022-08-28T22:12:40.649Z,48.89
2022-08-28T22:15:08.995Z,48.95
2022-08-28T22:17:36.802Z,48.82
2022-08-28T22:20:05.198Z,49.33
2022-08-28T22:22:51.421Z,49.05
2022-08-28T22:25:19.265Z,48.73
2022-08-28T22:27:47.047Z,48.63
2022-08-28T22:30:14.880Z,49.09
2022-08-28T22:32:43.210Z,49.38
2022-08-28T22:35:11.076Z,48.81
2022-08-28T22:37:38.907Z,48.90
2022-08-28T22:40:13.017Z,49.10
2022-08-28T22:42:42.558Z,49.61
2022-08-28T22:45:10.815Z,49.68
2022-08-28T22:47:39.759Z,49.63
2022-08-28T22:50:08.595Z,49.77
2022-08-28T22:52:37.276Z,49.32
2022-08-28T22:55:10.566Z,49.73
2022-08-28T22:57:40.508Z,49.21
2022-08-28T23:00:15.597Z,49.73
2022-08-28T23:02:44.389Z,49.62
2022-08-28T23:05:12.739Z,49.77
2022-08-28T23:07:41.058Z,50.21
2022-08-28T23:10:10.052Z,50.11
2022-08-28T23:12:38.203Z,49.66
2022-08-28T23:15:10.105Z,50.16
2022-08-28T23:17:38.207Z,50.02
2022-08-28T23:20:08.226Z,50.23
2022-08-28T23:22:38.435Z,50.34
2022-08-28T23:25:08.480Z,50.10
2022-08-28T23:27:36.900Z,50.44
2022-08-28T23:30:07.134Z,50.39
2022-08-28T23:32:35.106Z,50.61
2022-08-28T23:35:07.010Z,50.41
2022-08-28T23:37:37.467Z,50.33
2022-08-28T23:40:12.100Z,50.50
2022-08-28T23:42:40.543Z,50.06
2022-08-28T23:45:10.713Z,50.25
2022-08-28T23:47:40.139Z,50.65
2022-08-28T23:50:16.325Z,50.55
2022-08-28T23:52:44.455Z,50.47
2022-08-28T23:55:14.497Z,50.68
2022-08-28T23:57:43.133Z,50.70
